Time;durP1;ratioP1;P1;durP2;ratioP2;P2;SDS_P1;SDS_P2;PMS_P1;PMS_P2;Temp;Humidity;BMP_temperature;BMP_pressure;BME280_temperature;BME280_humidity;BME280_pressure;Samples;Min_cycle;Max_cycle;Signal;HPM_P1;HPM_P2
2022/04/07 04:00:10;;;;;;;3.20;1.20;;;6.90;96.30;;;;;;6028779;23;20747;31
2022/04/07 04:02:36;;;;;;;5.30;3.43;;;6.90;96.30;;;;;;4949418;29;21027;-79
2022/04/07 04:05:01;;;;;;;55.37;26.13;;;6.90;96.30;;;;;;4958858;29;20175;-75
2022/04/07 04:07:26;;;;;;;1.40;1.30;;;6.80;96.30;;;;;;4954232;28;20190;-77
2022/04/07 04:09:52;;;;;;;10.23;7.83;;;6.90;96.30;;;;;;4968373;28;20210;-77
2022/04/07 04:12:17;;;;;;;3.73;1.80;;;6.90;96.30;;;;;;4973042;28;20559;-75
2022/04/07 04:14:43;;;;;;;2.97;2.23;;;6.90;96.30;;;;;;4992504;28;20228;-75
2022/04/07 04:17:08;;;;;;;2.63;1.40;;;6.90;96.30;;;;;;4976095;28;20246;-76
2022/04/07 04:19:34;;;;;;;1.73;1.20;;;6.90;96.30;;;;;;4972482;28;20178;-78
2022/04/07 04:22:00;;;;;;;2.20;1.50;;;7.10;96.30;;;;;;4972830;28;20230;-75
2022/04/07 04:24:26;;;;;;;1.40;1.17;;;7.10;96.30;;;;;;4973145;28;20225;-75
2022/04/07 04:26:51;;;;;;;2.07;1.10;;;7.00;96.30;;;;;;4973039;28;20185;-76
2022/04/07 04:29:17;;;;;;;2.20;1.27;;;7.00;96.30;;;;;;4972292;28;20548;-78
2022/04/07 04:31:43;;;;;;;1.10;1.00;;;7.00;96.30;;;;;;4972718;28;20273;-79
2022/04/07 04:34:08;;;;;;;3.50;2.47;;;7.20;96.30;;;;;;4974430;28;20504;-75
2022/04/07 04:36:35;;;;;;;3.77;2.30;;;7.40;96.30;;;;;;4976839;28;20209;-75
2022/04/07 04:39:00;;;;;;;10.83;7.47;;;7.40;96.30;;;;;;4959430;28;20687;-79
2022/04/07 05:20:09;;;;;;;2.17;1.20;;;8.00;96.30;;;;;;4975886;28;20484;-79
2022/04/07 05:22:36;;;;;;;2.17;1.37;;;8.20;96.30;;;;;;4957931;28;20415;-76
2022/04/07 05:25:01;;;;;;;1.87;1.10;;;8.30;96.30;;;;;;4956573;28;20414;-75
2022/04/07 05:27:32;;;;;;;2.57;1.10;;;8.40;96.30;;;;;;4956309;29;20414;-78
2022/04/07 05:29:59;;;;;;;1.67;0.90;;;8.60;96.30;;;;;;4971303;28;20174;-75
2022/04/07 05:32:24;;;;;;;1.40;1.13;;;8.60;96.30;;;;;;4956069;29;20422;-76
2022/04/07 05:34:49;;;;;;;1.20;0.97;;;8.60;96.30;;;;;;4956467;29;20897;-75
2022/04/07 05:37:15;;;;;;;1.00;0.70;;;8.70;96.30;;;;;;4956108;29;20175;-77
2022/04/07 05:39:40;;;;;;;3.27;1.10;;;8.70;96.30;;;;;;4954635;29;20201;-75
2022/04/07 05:42:06;;;;;;;1.40;0.90;;;8.60;96.30;;;;;;4956216;29;20612;-76
2022/04/07 05:44:31;;;;;;;1.27;0.70;;;8.60;96.30;;;;;;4938948;29;20179;-76
2022/04/07 05:46:57;;;;;;;1.17;0.70;;;8.60;96.30;;;;;;4956237;29;20183;-76
2022/04/07 05:49:22;;;;;;;1.00;0.60;;;8.50;96.30;;;;;;4973882;28;20201;-76
2022/04/07 05:51:50;;;;;;;1.20;0.90;;;8.60;96.30;;;;;;4974097;28;20198;-76
2022/04/07 05:54:17;;;;;;;1.13;0.80;;;8.60;96.30;;;;;;4975539;28;20522;-75
2022/04/07 05:56:43;;;;;;;2.10;1.07;;;8.70;96.30;;;;;;4958300;28;20816;-75
2022/04/07 05:59:08;;;;;;;1.37;0.80;;;8.70;96.30;;;;;;4975261;28;20413;-76
2022/04/07 06:01:34;;;;;;;0.90;0.73;;;8.80;96.30;;;;;;4975456;28;20582;-77
2022/04/07 06:03:59;;;;;;;4.50;0.93;;;8.70;96.30;;;;;;4975481;28;20194;-76
2022/04/07 06:06:25;;;;;;;1.63;0.80;;;8.80;96.30;;;;;;4975119;28;20182;-76
2022/04/07 06:08:50;;;;;;;1.83;0.80;;;8.90;96.30;;;;;;4957901;28;20594;-76
2022/04/07 06:11:16;;;;;;;1.00;0.80;;;8.90;96.30;;;;;;4975255;28;20273;-76
2022/04/07 06:13:42;;;;;;;0.90;0.70;;;8.80;96.30;;;;;;4979590;28;20174;-76
2022/04/07 06:16:08;;;;;;;1.57;1.00;;;8.80;96.30;;;;;;4972119;28;20674;-80
2022/04/07 06:18:33;;;;;;;1.30;0.80;;;8.80;96.30;;;;;;4936824;29;20447;-75
2022/04/07 06:20:59;;;;;;;1.13;0.60;;;8.80;96.30;;;;;;4936570;29;20725;-76
2022/04/07 06:23:26;;;;;;;1.50;0.63;;;8.70;96.30;;;;;;4936485;29;20176;-76
2022/04/07 06:25:51;;;;;;;1.10;0.80;;;8.70;96.30;;;;;;4951186;29;20244;-76
2022/04/07 06:28:22;;;;;;;1.00;0.70;;;8.70;96.30;;;;;;4936187;29;20462;-76
2022/04/07 06:30:48;;;;;;;1.43;0.80;;;8.70;96.30;;;;;;4936265;29;20195;-75
2022/04/07 06:33:13;;;;;;;2.73;0.80;;;8.70;96.30;;;;;;4934904;29;20439;-75
2022/04/07 06:35:39;;;;;;;1.93;0.70;;;8.90;96.30;;;;;;4935928;29;20521;-77
2022/04/07 06:38:04;;;;;;;0.90;0.60;;;9.00;96.30;;;;;;4935951;29;20544;-75
2022/04/07 06:40:30;;;;;;;1.73;0.70;;;9.10;96.30;;;;;;4935967;29;20292;-75
2022/04/07 06:42:57;;;;;;;2.50;0.83;;;9.20;96.30;;;;;;4936180;29;20176;-75
2022/04/07 06:45:27;;;;;;;3.00;0.70;;;9.20;96.30;;;;;;4936721;29;20174;-76
2022/04/07 06:47:52;;;;;;;1.00;0.80;;;9.20;96.30;;;;;;4934592;29;20423;-76
2022/04/07 06:50:21;;;;;;;0.90;0.70;;;9.20;96.30;;;;;;4934722;29;20481;-76
2022/04/07 06:52:46;;;;;;;1.30;0.60;;;9.20;96.30;;;;;;4936142;29;20172;-76
2022/04/07 06:55:14;;;;;;;2.60;0.70;;;9.20;96.30;;;;;;4935907;29;20514;-76
2022/04/07 06:58:12;;;;;;;1.60;0.70;;;9.20;96.30;;;;;;4935374;29;20191;-78
2022/04/07 07:00:45;;;;;;;0.90;0.70;;;9.10;96.30;;;;;;4926624;29;20980;-77
2022/04/07 07:03:14;;;;;;;0.90;0.70;;;9.20;96.30;;;;;;4955299;29;20415;-76
2022/04/07 07:05:40;;;;;;;1.13;0.80;;;9.30;96.30;;;;;;4953886;29;20423;-76
2022/04/07 07:08:10;;;;;;;0.90;0.60;;;9.40;96.30;;;;;;4954831;29;20414;-78
2022/04/07 07:10:36;;;;;;;1.10;0.73;;;10.00;96.30;;;;;;4955390;29;21118;-76
2022/04/07 07:13:01;;;;;;;1.97;0.77;;;10.40;96.30;;;;;;4954965;29;20438;-76
2022/04/07 07:15:27;;;;;;;0.87;0.60;;;10.70;96.30;;;;;;4953927;29;20234;-76
2022/04/07 07:17:53;;;;;;;0.90;0.60;;;11.30;96.30;;;;;;4961782;28;20167;-76
2022/04/07 07:20:19;;;;;;;0.90;0.60;;;11.40;96.30;;;;;;4956981;28;20441;-79
2022/04/07 07:22:44;;;;;;;1.73;0.57;;;11.20;96.30;;;;;;4974138;28;20639;-79
2022/04/07 07:25:11;;;;;;;1.17;0.70;;;11.50;96.30;;;;;;4973941;28;20426;-76
2022/04/07 07:27:44;;;;;;;1.00;0.70;;;11.60;96.30;;;;;;4973962;28;20225;-76
2022/04/07 07:30:11;;;;;;;1.00;0.60;;;11.30;96.30;;;;;;4973938;28;20476;-75
2022/04/07 07:32:38;;;;;;;1.47;0.60;;;11.20;96.30;;;;;;4956707;28;20424;-76
2022/04/07 07:35:04;;;;;;;0.90;0.50;;;11.10;96.30;;;;;;4973924;28;20457;-75
2022/04/07 07:37:30;;;;;;;0.90;0.63;;;11.10;96.30;;;;;;4973752;28;20807;-75
2022/04/07 07:39:56;;;;;;;1.00;0.70;;;10.60;96.30;;;;;;4956637;28;20935;-75
2022/04/07 07:42:21;;;;;;;0.90;0.70;;;10.70;96.30;;;;;;4973694;28;20201;-75
2022/04/07 07:44:47;;;;;;;0.90;0.60;;;10.80;96.30;;;;;;4973803;28;20174;-75
2022/04/07 07:47:12;;;;;;;1.10;0.60;;;10.60;96.30;;;;;;4973765;28;20237;-75
2022/04/07 07:49:38;;;;;;;1.20;0.70;;;10.50;96.30;;;;;;4973715;28;20209;-75
2022/04/07 07:52:04;;;;;;;4.50;0.67;;;10.50;96.30;;;;;;4973781;28;20549;-78
2022/04/07 07:54:29;;;;;;;1.40;0.60;;;10.60;96.30;;;;;;4956433;28;20668;-78
2022/04/07 07:56:55;;;;;;;0.90;0.57;;;10.40;96.30;;;;;;4973669;28;20406;-75
2022/04/07 07:59:21;;;;;;;1.20;0.60;;;10.40;96.30;;;;;;4973537;28;20182;-75
2022/04/07 08:01:48;;;;;;;2.30;0.60;;;10.60;96.30;;;;;;4973351;28;20193;-75
2022/04/07 08:04:14;;;;;;;1.63;0.60;;;11.20;96.30;;;;;;4936976;29;20415;-75
2022/04/07 08:06:40;;;;;;;0.90;0.60;;;11.00;96.30;;;;;;4954077;29;20478;-77
2022/04/07 08:09:05;;;;;;;1.63;0.70;;;11.00;96.30;;;;;;4956042;28;20438;-75
2022/04/07 08:11:31;;;;;;;1.10;0.50;;;10.80;96.30;;;;;;4958023;29;20685;-75
2022/04/07 08:13:57;;;;;;;2.03;0.83;;;11.30;96.30;;;;;;4957966;29;20179;-76
2022/04/07 08:16:23;;;;;;;0.80;0.60;;;12.80;96.30;;;;;;4957724;29;20457;-77
2022/04/07 08:18:48;;;;;;;1.47;0.60;;;13.30;96.30;;;;;;4957778;29;20186;-78
2022/04/07 08:21:14;;;;;;;0.90;0.53;;;13.20;96.30;;;;;;4957881;29;20960;-75
2022/04/07 08:23:40;;;;;;;1.97;0.60;;;13.40;96.30;;;;;;4940634;29;20213;-75
2022/04/07 08:26:05;;;;;;;1.30;0.63;;;13.70;96.30;;;;;;4957872;29;20186;-75
2022/04/07 08:28:30;;;;;;;1.47;0.60;;;13.90;96.30;;;;;;4957732;29;20183;-76
2022/04/07 08:30:56;;;;;;;1.50;0.67;;;13.70;96.30;;;;;;4957710;29;20701;-75
2022/04/07 08:33:21;;;;;;;0.90;0.60;;;13.90;96.30;;;;;;4957808;29;20234;-75
2022/04/07 08:35:47;;;;;;;1.10;0.60;;;13.20;96.30;;;;;;4940163;29;20331;-76
2022/04/07 08:38:15;;;;;;;0.90;0.50;;;12.80;96.30;;;;;;4957767;29;20182;-75
2022/04/07 08:40:42;;;;;;;2.50;0.70;;;12.60;96.30;;;;;;4957633;29;20194;-75
2022/04/07 08:43:09;;;;;;;0.90;0.60;;;13.00;96.30;;;;;;4940188;29;20422;-76
2022/04/07 08:45:36;;;;;;;0.90;0.60;;;14.00;96.30;;;;;;4957478;29;20418;-76
2022/04/07 08:48:03;;;;;;;1.60;0.63;;;14.40;96.30;;;;;;4957112;29;20413;-76
2022/04/07 08:50:33;;;;;;;0.80;0.50;;;14.70;96.30;;;;;;4957197;29;20417;-76
2022/04/07 08:52:59;;;;;;;1.00;0.60;;;14.80;96.30;;;;;;4957287;29;20414;-75
2022/04/07 08:55:25;;;;;;;1.20;0.50;;;14.10;95.70;;;;;;4957278;29;20809;-75
2022/04/07 08:57:50;;;;;;;0.80;0.50;;;13.90;96.30;;;;;;4940038;29;20257;-75
2022/04/07 09:00:16;;;;;;;0.80;0.53;;;14.60;96.30;;;;;;4956998;29;20167;-77
2022/04/07 09:02:43;;;;;;;1.83;0.60;;;15.30;93.00;;;;;;4957118;29;20241;-76
2022/04/07 09:05:10;;;;;;;0.90;0.50;;;15.10;93.00;;;;;;4957145;29;20420;-75
2022/04/07 09:07:36;;;;;;;0.87;0.50;;;16.10;96.30;;;;;;4955714;29;20425;-77
2022/04/07 09:10:03;;;;;;;5.63;0.60;;;15.80;92.90;;;;;;4957043;29;20414;-75
2022/04/07 09:12:29;;;;;;;0.90;0.50;;;15.50;94.00;;;;;;4956957;29;20198;-76
2022/04/07 09:14:59;;;;;;;1.30;0.50;;;15.00;95.30;;;;;;4956916;29;20461;-75
2022/04/07 09:17:26;;;;;;;1.37;0.50;;;15.10;94.20;;;;;;4956732;29;20202;-75
2022/04/07 09:19:52;;;;;;;0.90;0.50;;;14.60;95.80;;;;;;4956361;28;20946;-75
2022/04/07 09:22:27;;;;;;;0.80;0.50;;;15.30;96.30;;;;;;4939214;29;20493;-75
2022/04/07 09:24:52;;;;;;;1.60;0.60;;;14.60;95.30;;;;;;4956875;29;20798;-79
2022/04/07 09:27:18;;;;;;;0.87;0.60;;;13.70;96.30;;;;;;4956845;29;20414;-76
2022/04/07 09:29:45;;;;;;;1.10;0.60;;;13.30;96.30;;;;;;4956749;29;20179;-75
2022/04/07 09:32:18;;;;;;;0.90;0.53;;;13.00;96.30;;;;;;4956637;29;20195;-76
2022/04/07 09:34:44;;;;;;;0.80;0.50;;;13.60;96.30;;;;;;4956708;29;21035;-75
2022/04/07 09:37:10;;;;;;;2.60;0.70;;;13.70;96.30;;;;;;4957114;29;20510;-75
2022/04/07 09:39:39;;;;;;;0.83;0.57;;;13.60;96.30;;;;;;4956550;29;20497;-75
2022/04/07 09:42:25;;;;;;;1.17;0.60;;;13.80;96.20;;;;;;4956295;29;20206;-79
2022/04/07 09:44:59;;;;;;;1.53;0.60;;;14.00;96.30;;;;;;4956348;29;20399;-75
2022/04/07 09:47:37;;;;;;;0.90;0.60;;;14.30;94.60;;;;;;4956417;29;20926;-77
2022/04/07 09:50:04;;;;;;;1.10;0.60;;;14.40;96.30;;;;;;4956355;29;20394;-75
2022/04/07 09:52:30;;;;;;;0.90;0.60;;;14.30;96.30;;;;;;4956081;29;20807;-75
2022/04/07 09:55:02;;;;;;;1.80;0.70;;;14.10;96.30;;;;;;4954837;28;20458;-76
2022/04/07 09:57:29;;;;;;;1.10;0.60;;;14.30;96.30;;;;;;4938824;29;20410;-76
2022/04/07 09:59:57;;;;;;;0.87;0.63;;;13.90;96.30;;;;;;4956264;29;20417;-75
2022/04/07 10:02:24;;;;;;;5.73;0.70;;;13.80;96.30;;;;;;4955995;29;20958;-75
2022/04/07 10:04:50;;;;;;;0.90;0.70;;;14.20;96.30;;;;;;4956125;29;20415;-75
2022/04/07 10:07:16;;;;;;;1.50;0.60;;;14.90;96.30;;;;;;4956231;29;20780;-75
2022/04/07 10:09:42;;;;;;;0.87;0.60;;;14.70;96.30;;;;;;4955799;29;20446;-75
2022/04/07 10:12:09;;;;;;;0.87;0.60;;;14.30;96.30;;;;;;4955682;29;20461;-75
2022/04/07 10:14:36;;;;;;;0.87;0.60;;;13.60;96.30;;;;;;4955676;29;20175;-75
2022/04/07 10:17:02;;;;;;;0.90;0.67;;;13.20;96.30;;;;;;4954712;29;20946;-75
2022/04/07 10:19:38;;;;;;;0.80;0.50;;;13.00;96.30;;;;;;4955528;29;20529;-74
2022/04/07 10:22:43;;;;;;;0.80;0.60;;;12.80;96.30;;;;;;4955548;29;20701;-74
2022/04/07 10:25:10;;;;;;;0.90;0.60;;;13.20;96.30;;;;;;4955592;29;20411;-75
2022/04/07 10:27:44;;;;;;;0.80;0.50;;;13.10;96.30;;;;;;4955334;29;20411;-75
2022/04/07 10:30:12;;;;;;;1.13;0.60;;;13.00;96.30;;;;;;4938458;28;20447;-75
2022/04/07 10:32:43;;;;;;;1.30;0.70;;;13.30;96.30;;;;;;4960067;28;20941;-79
2022/04/07 10:35:10;;;;;;;0.90;0.60;;;13.50;96.30;;;;;;4968859;28;20822;-80
2022/04/07 10:37:43;;;;;;;0.80;0.60;;;14.00;96.30;;;;;;4978318;28;20406;-79
2022/04/07 12:14:08;;;;;;;1.63;0.60;;;12.30;96.30;;;;;;5195539;23;20493;-76
2022/04/07 12:16:34;;;;;;;0.80;0.50;;;12.50;96.30;;;;;;4972937;28;20465;-76
2022/04/07 12:19:04;;;;;;;1.17;0.63;;;12.30;96.30;;;;;;4972989;28;20455;-76
2022/04/07 12:21:56;;;;;;;2.90;0.50;;;12.30;96.30;;;;;;4972566;28;21069;-78
2022/04/07 12:24:22;;;;;;;1.00;0.60;;;12.00;96.30;;;;;;4973465;28;20410;-78
2022/04/07 12:26:50;;;;;;;0.90;0.50;;;12.00;96.30;;;;;;4956243;28;20432;-78
2022/04/07 12:29:17;;;;;;;1.00;0.53;;;12.00;96.30;;;;;;4956915;28;20465;-79
2022/04/07 12:31:43;;;;;;;0.80;0.50;;;12.20;96.30;;;;;;4957607;28;20954;-79
2022/04/07 12:34:13;;;;;;;0.90;0.53;;;12.20;96.30;;;;;;4974809;28;20929;-78
2022/04/07 12:36:42;;;;;;;1.00;0.50;;;11.90;96.30;;;;;;4975029;28;20994;-77
2022/04/07 12:39:10;;;;;;;1.07;0.60;;;11.90;96.30;;;;;;4956966;28;20422;-78
2022/04/07 12:41:54;;;;;;;0.97;0.50;;;11.90;96.30;;;;;;4957003;28;20441;-78
2022/04/07 12:44:22;;;;;;;1.37;0.50;;;11.80;96.30;;;;;;4950236;29;20422;-78
2022/04/07 12:46:50;;;;;;;0.80;0.60;;;11.80;96.30;;;;;;4959375;28;20414;-77
2022/04/07 12:49:23;;;;;;;0.80;0.50;;;12.10;96.30;;;;;;4975157;28;20412;-78
2022/04/07 12:52:13;;;;;;;1.30;0.73;;;12.00;96.30;;;;;;4957697;28;20495;-78
2022/04/07 12:54:58;;;;;;;0.80;0.50;;;12.00;96.30;;;;;;4976143;28;20415;-78
2022/04/07 12:57:33;;;;;;;0.87;0.50;;;12.00;96.30;;;;;;4961307;28;20802;-78
2022/04/07 13:00:07;;;;;;;0.80;0.50;;;11.90;96.30;;;;;;4960676;28;20421;-79
2022/04/07 13:02:46;;;;;;;1.93;0.60;;;12.00;96.30;;;;;;4978241;28;20439;-78
2022/04/07 13:05:12;;;;;;;0.80;0.57;;;12.20;96.30;;;;;;4978706;28;20445;-79
2022/04/07 13:07:38;;;;;;;1.10;0.60;;;12.20;96.30;;;;;;4960952;28;20937;-78
2022/04/07 13:10:04;;;;;;;2.10;0.60;;;12.10;96.30;;;;;;4978721;28;20424;-79
2022/04/07 13:12:29;;;;;;;2.70;0.60;;;12.40;96.30;;;;;;4975230;28;20586;-79
2022/04/07 13:14:55;;;;;;;0.87;0.60;;;12.50;96.30;;;;;;4941615;29;20447;-78
2022/04/07 13:17:20;;;;;;;2.27;0.53;;;12.70;96.30;;;;;;4959198;29;20246;-79
2022/04/07 13:19:46;;;;;;;0.80;0.50;;;12.70;96.30;;;;;;4955553;29;20646;-79
2022/04/07 13:22:12;;;;;;;0.83;0.57;;;12.50;96.30;;;;;;4942060;29;20221;-79
2022/04/07 13:24:38;;;;;;;1.00;0.50;;;12.30;96.30;;;;;;4941556;29;20179;-79
2022/04/07 13:27:03;;;;;;;0.90;0.50;;;12.20;96.30;;;;;;4942431;29;20175;-79
2022/04/07 13:29:30;;;;;;;1.10;0.50;;;12.30;96.30;;;;;;4942261;29;20186;-78
2022/04/07 13:31:56;;;;;;;1.00;0.60;;;12.70;96.30;;;;;;4937287;29;20192;-76
2022/04/07 13:34:21;;;;;;;0.90;0.50;;;13.20;96.30;;;;;;4920246;29;20435;-76
2022/04/07 13:36:47;;;;;;;0.80;0.50;;;13.20;96.30;;;;;;4937253;29;20203;-78
2022/04/07 13:39:13;;;;;;;1.33;0.50;;;13.20;96.30;;;;;;4937251;29;20172;-76
2022/04/07 13:41:38;;;;;;;0.87;0.53;;;13.10;96.30;;;;;;4937387;29;20316;-76
2022/04/07 13:44:05;;;;;;;1.00;0.77;;;13.10;96.30;;;;;;4937018;29;20180;-76
2022/04/07 13:46:31;;;;;;;3.90;0.60;;;12.90;96.30;;;;;;4937085;29;20171;-76
2022/04/07 13:48:56;;;;;;;1.10;0.50;;;12.90;96.30;;;;;;4927705;29;20930;-77
2022/04/07 13:51:22;;;;;;;2.13;0.50;;;12.80;96.30;;;;;;4919661;29;20448;-77
2022/04/07 13:53:48;;;;;;;1.20;0.50;;;12.80;96.30;;;;;;4936889;29;20182;-78
2022/04/07 13:56:13;;;;;;;1.17;0.50;;;12.90;96.30;;;;;;4936947;29;20369;-76
2022/04/07 13:58:39;;;;;;;0.80;0.50;;;12.70;96.30;;;;;;4919494;29;20209;-76
2022/04/07 14:01:05;;;;;;;0.93;0.50;;;12.70;96.30;;;;;;4943912;29;20597;-76
2022/04/07 14:03:31;;;;;;;0.80;0.50;;;12.70;96.30;;;;;;4955850;29;20174;-77
2022/04/07 14:05:59;;;;;;;0.80;0.50;;;12.40;96.30;;;;;;4937719;29;20426;-76
2022/04/07 14:08:26;;;;;;;2.40;0.67;;;12.10;96.30;;;;;;4936363;29;20171;-77
2022/04/07 14:10:51;;;;;;;16.57;9.03;;;12.10;96.30;;;;;;4936401;29;20427;-77
2022/04/07 14:13:20;;;;;;;0.90;0.60;;;12.10;96.30;;;;;;4945020;29;20448;-77
2022/04/07 14:15:48;;;;;;;0.80;0.50;;;12.20;96.30;;;;;;4955616;29;20230;-77
2022/04/07 14:18:14;;;;;;;0.80;0.50;;;12.40;96.30;;;;;;4938076;29;20446;-76
2022/04/07 14:20:45;;;;;;;3.00;0.80;;;12.40;96.30;;;;;;4955351;29;20442;-77
2022/04/07 14:23:11;;;;;;;0.80;0.50;;;12.40;96.30;;;;;;4955468;29;20663;-78
2022/04/07 14:25:37;;;;;;;0.87;0.50;;;12.40;96.30;;;;;;4955335;29;20937;-77
2022/04/07 14:28:03;;;;;;;1.10;0.60;;;12.40;96.30;;;;;;4955417;29;20458;-78
2022/04/07 14:30:29;;;;;;;1.13;0.80;;;12.00;96.30;;;;;;4955497;29;20882;-79
2022/04/07 14:32:55;;;;;;;0.80;0.50;;;12.00;96.30;;;;;;4956743;29;20652;-78
2022/04/07 14:35:20;;;;;;;0.80;0.50;;;11.90;96.30;;;;;;4939598;29;20234;-79
2022/04/07 14:37:47;;;;;;;0.80;0.50;;;11.90;96.30;;;;;;4939846;29;20182;-79
2022/04/07 14:40:13;;;;;;;1.00;0.50;;;11.90;96.30;;;;;;4957169;29;20202;-79
2022/04/07 14:42:38;;;;;;;1.13;0.50;;;11.90;96.30;;;;;;4956961;29;20426;-79
2022/04/07 14:45:04;;;;;;;2.20;0.50;;;12.10;96.30;;;;;;4957278;29;20966;-79
2022/04/07 14:47:30;;;;;;;1.00;0.50;;;12.30;96.30;;;;;;4940233;29;20186;-79
2022/04/07 14:49:55;;;;;;;0.90;0.60;;;12.10;96.30;;;;;;4939785;29;20422;-78
2022/04/07 14:52:21;;;;;;;1.23;0.60;;;12.00;96.30;;;;;;4939457;29;20612;-78
2022/04/07 14:54:46;;;;;;;0.87;0.57;;;12.00;96.30;;;;;;4957327;29;20229;-78
2022/04/07 14:57:12;;;;;;;1.00;0.57;;;11.90;96.30;;;;;;4956784;29;20214;-79
2022/04/07 14:59:37;;;;;;;0.80;0.50;;;11.90;96.30;;;;;;4939573;29;20189;-79
2022/04/07 15:02:03;;;;;;;1.00;0.53;;;11.80;96.30;;;;;;4956723;29;20716;-78
2022/04/07 15:04:29;;;;;;;0.90;0.60;;;11.70;96.30;;;;;;4960217;29;20187;-77
2022/04/07 15:06:54;;;;;;;1.30;0.60;;;11.60;96.30;;;;;;4941533;29;20801;-78
2022/04/07 15:09:20;;;;;;;0.90;0.70;;;11.70;96.30;;;;;;4939995;29;20178;-78
2022/04/07 15:11:49;;;;;;;1.17;0.73;;;11.50;96.30;;;;;;4941444;29;20703;-79
2022/04/07 15:14:14;;;;;;;1.20;0.50;;;11.40;96.30;;;;;;4953022;29;20205;-78
2022/04/07 15:16:40;;;;;;;1.10;0.97;;;11.40;96.30;;;;;;4954672;28;20470;-80
2022/04/07 15:19:07;;;;;;;1.00;0.60;;;11.40;96.30;;;;;;4955106;29;20678;-79
2022/04/07 15:21:33;;;;;;;1.23;0.87;;;11.30;96.30;;;;;;4955275;29;20230;-79
2022/04/07 15:23:58;;;;;;;1.20;0.93;;;11.10;96.30;;;;;;4956408;29;20473;-80
2022/04/07 15:26:23;;;;;;;9.93;0.90;;;10.90;96.30;;;;;;4957860;29;20194;-80
2022/04/07 15:28:49;;;;;;;1.10;0.60;;;10.80;96.30;;;;;;4957508;29;20719;-80
2022/04/07 15:31:16;;;;;;;2.60;0.50;;;10.80;96.30;;;;;;4956692;29;20202;-80
2022/04/07 15:33:44;;;;;;;1.10;0.60;;;10.70;96.30;;;;;;4957855;29;20182;-80
2022/04/07 15:36:10;;;;;;;0.90;0.60;;;10.60;96.30;;;;;;4959823;28;20532;-78
2022/04/07 15:38:36;;;;;;;1.43;0.60;;;10.60;96.30;;;;;;4973397;28;20453;-76
2022/04/07 15:41:08;;;;;;;2.10;0.70;;;10.50;96.30;;;;;;4973512;28;20458;-75
2022/04/07 15:43:37;;;;;;;0.90;0.50;;;10.40;96.30;;;;;;4973545;28;20541;-75
2022/04/07 15:46:02;;;;;;;1.40;0.60;;;10.30;96.30;;;;;;4972672;28;20440;-77
2022/04/07 15:48:28;;;;;;;2.43;0.60;;;10.20;96.30;;;;;;4973161;28;20449;-77
2022/04/07 15:50:53;;;;;;;1.10;0.57;;;10.10;96.30;;;;;;4973260;28;20224;-75
2022/04/07 15:53:19;;;;;;;0.90;0.60;;;10.00;96.30;;;;;;4973439;28;20646;-75
2022/04/07 15:55:46;;;;;;;7.50;0.80;;;9.90;96.30;;;;;;4955963;28;20228;-75
2022/04/07 15:58:13;;;;;;;1.57;0.70;;;9.70;96.30;;;;;;4955891;28;20652;-76
2022/04/07 16:00:39;;;;;;;0.90;0.60;;;8.90;96.30;;;;;;4973457;28;20429;-73
2022/04/07 16:03:05;;;;;;;1.97;1.00;;;8.40;96.30;;;;;;4956030;28;20464;-76
2022/04/07 16:05:30;;;;;;;1.83;0.70;;;8.20;96.30;;;;;;4973231;28;20929;-74
2022/04/07 16:07:56;;;;;;;2.47;0.80;;;8.10;96.30;;;;;;4955975;28;20221;-74
2022/04/07 16:10:21;;;;;;;1.93;0.80;;;8.10;96.30;;;;;;4973312;28;20182;-73
2022/04/07 16:12:47;;;;;;;2.00;1.40;;;8.00;96.30;;;;;;4973208;28;20229;-74
2022/04/07 16:15:12;;;;;;;3.10;0.93;;;8.00;96.30;;;;;;4973259;28;20197;-75
2022/04/07 16:17:39;;;;;;;1.77;1.67;;;8.00;96.30;;;;;;4973067;28;20174;-74
2022/04/07 16:20:06;;;;;;;0.90;0.60;;;7.90;96.30;;;;;;4973124;28;20621;-73
2022/04/07 16:22:33;;;;;;;1.60;0.83;;;7.80;96.30;;;;;;4973066;28;20429;-73
2022/04/07 16:24:59;;;;;;;3.30;1.30;;;7.90;96.30;;;;;;4973256;28;20402;-74
2022/04/07 16:27:25;;;;;;;4.30;0.80;;;8.10;96.30;;;;;;4973096;28;20422;-80
2022/04/07 16:29:51;;;;;;;4.20;0.70;;;8.40;96.30;;;;;;4974598;28;20642;-79
2022/04/07 16:32:16;;;;;;;1.63;0.60;;;8.50;96.30;;;;;;4959729;28;20444;-77
2022/04/07 16:34:42;;;;;;;0.90;0.53;;;8.40;96.30;;;;;;4976776;28;20249;-77
2022/04/07 16:37:07;;;;;;;1.27;0.80;;;8.30;96.30;;;;;;4977150;28;20189;-78
2022/04/07 16:39:33;;;;;;;1.53;0.80;;;8.20;96.30;;;;;;4960880;28;20205;-79
2022/04/07 17:57:05;;;;;;;1.93;0.70;;;8.00;96.30;;;;;;5282409;23;20483;-79
2022/04/07 17:59:30;;;;;;;1.87;0.97;;;7.90;96.30;;;;;;4994277;28;20492;-80
2022/04/07 18:01:56;;;;;;;6.20;0.97;;;7.80;96.30;;;;;;4994581;28;20524;-76
2022/04/07 18:04:21;;;;;;;1.00;0.60;;;8.00;96.30;;;;;;4977022;28;20174;-78
2022/04/07 18:06:47;;;;;;;3.53;1.73;;;7.90;96.30;;;;;;4994314;28;20185;-78
2022/04/07 18:09:12;;;;;;;1.97;1.33;;;7.80;96.30;;;;;;4994041;28;20205;-78
2022/04/07 18:11:38;;;;;;;1.57;0.80;;;7.70;96.30;;;;;;4994548;28;20224;-78
2022/04/07 18:14:03;;;;;;;4.30;1.17;;;7.60;96.30;;;;;;4977268;28;20180;-78
2022/04/07 18:16:29;;;;;;;1.33;0.83;;;7.50;96.30;;;;;;4993215;28;20288;-79
2022/04/07 18:18:54;;;;;;;1.80;1.03;;;7.60;96.30;;;;;;4959806;28;20181;-75
2022/04/07 18:21:20;;;;;;;3.07;0.83;;;7.60;96.30;;;;;;4994934;28;20627;-76
2022/04/07 18:23:45;;;;;;;1.10;0.67;;;7.60;96.30;;;;;;5013827;28;20180;-76
2022/04/07 18:26:13;;;;;;;1.20;0.70;;;7.60;96.30;;;;;;4996166;28;20242;-76
2022/04/07 18:28:38;;;;;;;1.27;0.70;;;7.50;96.30;;;;;;4996120;28;20544;-78
2022/04/07 18:31:04;;;;;;;3.67;2.97;;;7.40;96.30;;;;;;5015004;28;20519;-79
2022/04/07 18:33:30;;;;;;;1.07;0.73;;;7.40;96.30;;;;;;5015654;28;20188;-78
2022/04/07 18:35:56;;;;;;;1.43;0.80;;;7.30;96.30;;;;;;5016682;28;20665;-79
2022/04/07 18:38:22;;;;;;;1.53;0.83;;;7.40;96.30;;;;;;5016414;28;20439;-79
2022/04/07 18:40:48;;;;;;;0.90;0.60;;;7.40;96.30;;;;;;4999575;28;20783;-79
2022/04/07 18:43:15;;;;;;;1.77;0.90;;;7.20;96.30;;;;;;4999365;28;20177;-79
2022/04/07 18:45:40;;;;;;;2.53;1.10;;;7.20;96.30;;;;;;5017405;28;20412;-79
2022/04/07 18:48:06;;;;;;;1.13;0.77;;;7.20;96.30;;;;;;4997751;28;20435;-79
2022/04/07 18:50:31;;;;;;;2.13;1.00;;;7.30;96.30;;;;;;4981164;28;20186;-79
2022/04/07 18:52:59;;;;;;;1.17;0.80;;;7.20;96.30;;;;;;4996477;28;20258;-79
2022/04/07 18:55:25;;;;;;;1.87;0.93;;;7.10;96.30;;;;;;4978554;28;20276;-80
2022/04/07 18:57:52;;;;;;;3.83;0.87;;;7.20;96.30;;;;;;4996131;28;20452;-80
2022/04/07 19:00:19;;;;;;;1.37;0.77;;;7.00;96.30;;;;;;4979507;28;20197;-79
2022/04/07 19:02:45;;;;;;;1.37;0.80;;;7.10;96.30;;;;;;4996570;28;20412;-81
2022/04/07 19:05:12;;;;;;;1.50;1.10;;;7.20;96.30;;;;;;4996031;28;20417;-80
2022/04/07 19:07:38;;;;;;;1.50;0.70;;;7.10;96.30;;;;;;4995780;28;20181;-81
2022/04/07 19:10:04;;;;;;;1.67;0.77;;;7.00;96.30;;;;;;4995696;28;20768;-81
2022/04/07 19:12:31;;;;;;;1.97;1.10;;;7.00;96.30;;;;;;4978884;28;20935;-82
2022/04/07 19:14:58;;;;;;;2.03;1.03;;;7.00;96.30;;;;;;4977752;28;20421;-79
2022/04/07 19:17:24;;;;;;;1.50;1.10;;;7.10;96.30;;;;;;4996395;28;20413;-80
2022/04/07 19:19:50;;;;;;;1.30;0.80;;;7.10;96.30;;;;;;4995680;28;20428;-80
2022/04/07 19:22:16;;;;;;;0.90;0.67;;;7.10;96.30;;;;;;4979212;28;20193;-81
2022/04/07 19:24:42;;;;;;;1.13;0.73;;;7.10;96.30;;;;;;4997460;28;20515;-79
2022/04/07 19:27:09;;;;;;;2.20;0.80;;;7.10;96.30;;;;;;4997798;28;20187;-80
2022/04/07 19:29:35;;;;;;;2.30;0.80;;;7.10;96.30;;;;;;5015588;28;20200;-80
2022/04/07 19:32:00;;;;;;;1.40;0.70;;;7.10;96.30;;;;;;4997104;28;20444;-81
2022/04/07 19:34:29;;;;;;;2.70;1.00;;;7.10;96.30;;;;;;5012890;28;20411;-78
2022/04/07 19:36:55;;;;;;;1.50;0.80;;;7.20;96.30;;;;;;4995006;28;20201;-76
2022/04/07 19:39:20;;;;;;;1.73;0.80;;;7.10;96.30;;;;;;4994353;28;20431;-76
2022/04/07 19:41:49;;;;;;;1.27;0.70;;;7.10;96.30;;;;;;4994411;28;20191;-78
2022/04/07 19:44:14;;;;;;;1.50;1.07;;;7.10;96.30;;;;;;4975007;28;20177;-78
2022/04/07 19:46:40;;;;;;;1.20;0.67;;;7.00;96.30;;;;;;4974202;28;20428;-79
2022/04/07 19:49:06;;;;;;;1.10;0.70;;;7.00;96.30;;;;;;4993105;28;20185;-82
2022/04/07 19:51:32;;;;;;;2.30;0.87;;;6.90;96.30;;;;;;4995847;28;20228;-80
2022/04/07 19:53:57;;;;;;;1.30;0.70;;;6.90;96.30;;;;;;4996120;28;20417;-81
2022/04/07 19:56:23;;;;;;;1.37;0.80;;;6.90;96.30;;;;;;4977885;28;20471;-80
2022/04/07 19:58:48;;;;;;;1.37;0.70;;;6.90;96.30;;;;;;4977013;28;20220;-81
2022/04/07 20:01:15;;;;;;;1.50;1.00;;;6.90;96.30;;;;;;4994738;28;20208;-78
2022/04/07 20:03:41;;;;;;;2.43;1.30;;;6.80;96.30;;;;;;4977363;28;20285;-76
2022/04/07 20:06:08;;;;;;;1.67;1.10;;;6.60;96.30;;;;;;4975449;28;20968;-79
2022/04/07 20:08:34;;;;;;;3.23;0.70;;;6.60;96.30;;;;;;4992576;28;20174;-76
2022/04/07 20:10:59;;;;;;;1.60;1.00;;;6.70;96.30;;;;;;4992886;28;20444;-76
2022/04/07 20:13:25;;;;;;;4.33;0.93;;;6.60;96.30;;;;;;4975146;28;20548;-76
2022/04/07 20:15:51;;;;;;;2.90;1.50;;;6.50;96.30;;;;;;4992693;28;20277;-78